createdAt,value
2018-05-31T00:00:05.343Z,22.66
2018-05-31T00:02:33.598Z,22.10
2018-05-31T00:05:01.900Z,21.97
2018-05-31T00:07:30.151Z,21.90
2018-05-31T00:09:58.429Z,22.09
2018-05-31T00:12:26.718Z,22.25
2018-05-31T00:14:54.994Z,22.36
2018-05-31T00:17:29.568Z,22.24
2018-05-31T00:19:57.906Z,22.29
2018-05-31T00:22:26.170Z,22.16
2018-05-31T00:24:54.450Z,22.25
2018-05-31T00:27:22.802Z,22.18
2018-05-31T00:29:51.042Z,22.10
2018-05-31T00:32:19.317Z,21.69
2018-05-31T00:34:49.648Z,21.44
2018-05-31T00:37:21.922Z,21.34
2018-05-31T00:39:54.515Z,21.56
2018-05-31T00:42:26.422Z,21.63
2018-05-31T00:44:57.640Z,21.79
2018-05-31T00:47:26.383Z,21.93
2018-05-31T00:49:54.660Z,21.75
2018-05-31T00:52:22.954Z,21.64
2018-05-31T00:54:51.241Z,21.75
2018-05-31T00:57:19.672Z,21.87
2018-05-31T00:59:47.968Z,21.76
2018-05-31T01:02:16.266Z,21.65
2018-05-31T01:04:44.549Z,21.59
2018-05-31T01:07:12.843Z,21.58
2018-05-31T01:09:42.238Z,21.46
2018-05-31T01:12:11.032Z,21.23
2018-05-31T01:14:41.134Z,20.95
2018-05-31T01:17:09.659Z,20.71
2018-05-31T01:19:38.293Z,20.64
2018-05-31T01:22:06.567Z,21.03
2018-05-31T01:24:34.847Z,20.99
2018-05-31T01:27:03.105Z,20.71
2018-05-31T01:29:31.385Z,20.80
2018-05-31T01:32:01.480Z,20.79
2018-05-31T01:34:30.481Z,20.74
2018-05-31T01:37:03.728Z,20.69
2018-05-31T01:39:34.407Z,20.67
2018-05-31T01:42:02.691Z,20.56
2018-05-31T01:44:31.266Z,20.67
2018-05-31T01:46:59.770Z,20.81
2018-05-31T01:49:28.256Z,20.83
2018-05-31T01:51:59.042Z,20.87
2018-05-31T01:54:27.386Z,20.90
2018-05-31T01:56:55.647Z,21.00
2018-05-31T01:59:24.233Z,21.00
2018-05-31T02:01:52.543Z,20.99
2018-05-31T02:04:20.810Z,20.83
2018-05-31T02:06:49.127Z,20.88
2018-05-31T02:09:17.400Z,20.96
2018-05-31T02:11:45.693Z,21.00
2018-05-31T02:14:13.964Z,20.88
2018-05-31T02:16:42.471Z,20.68
2018-05-31T02:19:10.740Z,20.81
2018-05-31T02:21:39.029Z,20.66
2018-05-31T02:24:07.293Z,20.47
2018-05-31T02:26:35.574Z,20.38
2018-05-31T02:29:03.850Z,20.48
2018-05-31T02:31:32.138Z,20.64
2018-05-31T02:34:00.398Z,20.61
2018-05-31T02:36:28.682Z,20.68
2018-05-31T02:38:57.166Z,20.52
2018-05-31T02:41:25.435Z,20.25
2018-05-31T02:43:54.259Z,20.40
2018-05-31T02:46:22.518Z,20.51
2018-05-31T02:48:50.798Z,20.60
2018-05-31T02:51:19.065Z,20.72
2018-05-31T02:53:47.350Z,20.74
2018-05-31T02:56:15.618Z,20.61
2018-05-31T02:58:45.566Z,20.54
2018-05-31T03:01:13.815Z,20.55
2018-05-31T03:03:42.088Z,20.64
2018-05-31T03:06:10.354Z,20.72
2018-05-31T03:08:38.635Z,20.56
2018-05-31T03:11:06.886Z,20.64
2018-05-31T03:13:35.168Z,20.73
2018-05-31T03:16:03.438Z,20.71
2018-05-31T03:18:31.743Z,20.82
2018-05-31T03:21:00.026Z,20.92
2018-05-31T03:23:28.290Z,21.05
2018-05-31T03:25:56.566Z,21.03
2018-05-31T03:28:24.830Z,20.98
2018-05-31T03:30:53.631Z,20.84
2018-05-31T03:33:21.921Z,20.84
2018-05-31T03:35:51.512Z,20.80
2018-05-31T03:38:19.746Z,20.81
2018-05-31T03:40:48.048Z,20.81
2018-05-31T03:43:16.311Z,20.83
2018-05-31T03:45:44.608Z,20.88
2018-05-31T03:48:12.872Z,20.77
2018-05-31T03:50:41.157Z,20.70
2018-05-31T03:53:09.425Z,20.61
2018-05-31T03:55:37.699Z,20.46
2018-05-31T03:58:05.976Z,20.55
2018-05-31T04:00:34.261Z,20.53
2018-05-31T04:03:02.538Z,20.63
2018-05-31T04:05:31.686Z,20.61
2018-05-31T04:07:59.959Z,20.50
2018-05-31T04:10:28.234Z,20.60
2018-05-31T04:12:56.589Z,20.61
2018-05-31T04:15:24.810Z,20.56
2018-05-31T04:17:53.086Z,20.39
2018-05-31T04:20:21.357Z,20.36
2018-05-31T04:22:49.661Z,20.29
2018-05-31T04:25:17.933Z,20.42
2018-05-31T04:27:46.202Z,20.53
2018-05-31T04:30:14.478Z,20.66
2018-05-31T04:32:42.761Z,20.66
2018-05-31T04:35:11.026Z,20.73
2018-05-31T04:37:39.334Z,20.82
2018-05-31T04:40:10.071Z,20.65
2018-05-31T04:42:39.876Z,20.46
2018-05-31T04:45:08.145Z,20.31
2018-05-31T04:47:36.742Z,20.47
2018-05-31T04:50:05.111Z,20.59
2018-05-31T04:52:33.720Z,20.76
2018-05-31T04:55:02.015Z,20.78
2018-05-31T04:57:30.281Z,20.89
2018-05-31T04:59:58.562Z,21.01
2018-05-31T05:02:26.834Z,21.08
2018-05-31T05:04:55.135Z,21.14
2018-05-31T05:07:23.389Z,21.29
2018-05-31T05:09:51.673Z,21.26
2018-05-31T05:12:20.454Z,21.29
2018-05-31T05:14:48.733Z,21.18
2018-05-31T05:17:17.003Z,21.28
2018-05-31T05:19:45.308Z,21.30
2018-05-31T05:22:15.169Z,21.33
2018-05-31T05:24:43.474Z,21.44
2018-05-31T05:27:11.883Z,21.51
2018-05-31T05:29:40.183Z,21.45
2018-05-31T05:32:09.155Z,21.49
2018-05-31T05:34:38.914Z,21.39
2018-05-31T05:37:07.173Z,21.27
2018-05-31T05:39:35.466Z,21.23
2018-05-31T05:42:09.833Z,21.04
2018-05-31T05:44:38.867Z,21.05
2018-05-31T05:47:08.049Z,21.00
2018-05-31T05:49:36.346Z,21.19
2018-05-31T05:52:05.196Z,21.45
2018-05-31T05:54:34.187Z,21.44
2018-05-31T05:57:02.570Z,21.60
2018-05-31T05:59:30.803Z,21.76
2018-05-31T06:01:59.114Z,21.85
2018-05-31T06:04:27.414Z,21.93
2018-05-31T06:06:56.482Z,21.99
2018-05-31T06:09:31.875Z,21.93
2018-05-31T06:12:00.180Z,22.04
2018-05-31T06:14:28.441Z,22.02
2018-05-31T06:16:56.786Z,21.92
2018-05-31T06:19:25.046Z,21.91
2018-05-31T06:21:53.334Z,21.83
2018-05-31T06:24:21.606Z,21.71
2018-05-31T06:26:49.875Z,21.71
2018-05-31T06:29:18.133Z,21.84
2018-05-31T06:31:46.420Z,21.78
2018-05-31T06:34:14.790Z,21.79
2018-05-31T06:36:44.294Z,21.85
2018-05-31T06:39:12.578Z,21.83
2018-05-31T06:41:40.847Z,21.82
2018-05-31T06:44:09.127Z,21.85
2018-05-31T06:46:37.402Z,21.93
2018-05-31T06:49:05.706Z,21.58
2018-05-31T06:51:33.971Z,21.73
2018-05-31T06:54:02.253Z,21.75
2018-05-31T06:56:30.519Z,21.78
2018-05-31T06:59:00.238Z,21.93
2018-05-31T07:01:28.490Z,22.01
2018-05-31T07:03:56.774Z,21.84
2018-05-31T07:06:25.048Z,21.87
2018-05-31T07:08:53.340Z,22.06
2018-05-31T07:11:21.599Z,22.12
2018-05-31T07:13:51.759Z,22.20
2018-05-31T07:16:20.723Z,22.18
2018-05-31T07:18:49.011Z,22.23
2018-05-31T07:21:17.270Z,22.20
2018-05-31T07:23:45.557Z,22.27
2018-05-31T07:26:14.938Z,22.31
2018-05-31T07:28:45.954Z,22.33
2018-05-31T07:31:16.633Z,22.50
2018-05-31T07:33:45.181Z,22.63
2018-05-31T07:36:13.474Z,22.73
2018-05-31T07:38:42.394Z,22.80
2018-05-31T07:41:10.862Z,22.86
2018-05-31T07:43:39.105Z,22.99
2018-05-31T07:46:07.391Z,23.17
2018-05-31T07:48:35.662Z,23.20
2018-05-31T07:51:04.960Z,23.24
2018-05-31T07:53:33.570Z,23.33
2018-05-31T07:56:01.853Z,23.19
2018-05-31T07:58:30.122Z,23.38
2018-05-31T08:00:58.500Z,23.15
2018-05-31T08:03:27.067Z,23.03
2018-05-31T08:05:55.367Z,23.13
2018-05-31T08:08:23.646Z,23.19
2018-05-31T08:10:51.992Z,23.21
2018-05-31T08:13:20.293Z,23.36
2018-05-31T08:15:48.552Z,23.45
2018-05-31T08:18:16.837Z,23.68
2018-05-31T08:20:45.128Z,23.86
2018-05-31T08:23:13.403Z,23.90
2018-05-31T08:25:41.754Z,24.00
2018-05-31T08:28:10.053Z,24.01
2018-05-31T08:30:38.308Z,24.05
2018-05-31T08:33:07.243Z,23.94
2018-05-31T08:35:35.515Z,23.85
2018-05-31T08:38:03.815Z,23.83
2018-05-31T08:40:32.090Z,24.03
2018-05-31T08:43:01.161Z,23.90
2018-05-31T08:45:29.505Z,23.93
2018-05-31T08:47:57.758Z,24.03
2018-05-31T08:50:26.072Z,24.18
2018-05-31T08:52:54.331Z,24.13
2018-05-31T08:55:23.874Z,24.21
2018-05-31T08:57:52.888Z,24.47
2018-05-31T09:00:22.169Z,24.80
2018-05-31T09:02:50.421Z,24.89
2018-05-31T09:05:18.705Z,24.98
2018-05-31T09:07:46.972Z,25.25
2018-05-31T09:10:15.257Z,25.26
2018-05-31T09:12:43.529Z,25.32
2018-05-31T09:15:11.901Z,25.44
2018-05-31T09:17:40.142Z,25.49
2018-05-31T09:20:08.403Z,25.79
2018-05-31T09:22:37.049Z,25.94
2018-05-31T09:25:05.310Z,26.09
2018-05-31T09:27:34.485Z,25.95
2018-05-31T09:30:02.742Z,25.92
2018-05-31T09:32:31.041Z,25.92
2018-05-31T09:34:59.397Z,25.89
2018-05-31T09:37:27.670Z,25.91
2018-05-31T09:39:55.965Z,26.09
2018-05-31T09:42:24.259Z,26.25
2018-05-31T09:44:52.565Z,26.00
2018-05-31T09:47:20.880Z,26.31
2018-05-31T09:49:49.252Z,26.31
2018-05-31T09:52:18.942Z,26.39
2018-05-31T09:54:48.158Z,26.49
2018-05-31T09:57:16.464Z,26.52
2018-05-31T09:59:44.728Z,26.51
2018-05-31T10:02:13.017Z,26.66
2018-05-31T10:04:41.279Z,26.84
2018-05-31T10:07:09.577Z,26.96
2018-05-31T10:09:37.821Z,26.88
2018-05-31T10:12:06.118Z,26.91
2018-05-31T10:14:35.517Z,27.15
2018-05-31T10:17:03.788Z,27.29
2018-05-31T10:19:39.917Z,27.43
2018-05-31T10:22:08.177Z,27.38
2018-05-31T10:24:36.469Z,27.66
2018-05-31T10:27:04.795Z,27.71
2018-05-31T10:29:33.129Z,27.49
2018-05-31T10:32:01.386Z,27.66
2018-05-31T10:34:29.995Z,27.91
2018-05-31T10:36:58.278Z,28.09
2018-05-31T10:39:26.959Z,28.29
2018-05-31T10:41:56.642Z,28.19
2018-05-31T10:44:24.978Z,27.59
2018-05-31T10:46:53.254Z,27.23
2018-05-31T10:49:21.594Z,27.16
2018-05-31T10:51:49.871Z,27.09
2018-05-31T10:54:18.137Z,27.18
2018-05-31T10:56:46.427Z,27.52
2018-05-31T10:59:14.708Z,27.93
2018-05-31T11:01:43.110Z,27.70
2018-05-31T11:04:11.517Z,27.52
2018-05-31T11:06:39.779Z,27.55
2018-05-31T11:09:08.050Z,27.48
2018-05-31T11:11:36.350Z,27.57
2018-05-31T11:14:05.581Z,27.74
2018-05-31T11:16:33.869Z,27.86
2018-05-31T11:19:02.177Z,27.95
2018-05-31T11:21:30.452Z,28.20
2018-05-31T11:23:58.746Z,28.02
2018-05-31T11:26:27.043Z,28.12
2018-05-31T11:28:55.389Z,28.29
2018-05-31T11:31:23.802Z,28.23
2018-05-31T11:33:52.065Z,28.12
2018-05-31T11:36:20.412Z,28.12
2018-05-31T11:38:49.139Z,28.11
2018-05-31T11:41:17.395Z,28.00
2018-05-31T11:43:45.708Z,28.11
2018-05-31T11:46:14.001Z,28.21
2018-05-31T11:48:42.313Z,28.25
2018-05-31T11:51:10.566Z,28.58
2018-05-31T11:53:38.860Z,28.93
2018-05-31T11:56:07.129Z,29.19
2018-05-31T11:58:36.662Z,29.15
2018-05-31T12:01:06.460Z,28.97
2018-05-31T12:03:34.772Z,28.74
2018-05-31T12:06:03.052Z,28.68
2018-05-31T12:08:31.358Z,28.62
2018-05-31T12:10:59.642Z,28.47
2018-05-31T12:13:28.270Z,28.48
2018-05-31T12:15:56.569Z,28.63
2018-05-31T12:18:25.210Z,29.05
2018-05-31T12:20:53.477Z,29.16
2018-05-31T12:23:22.781Z,29.36
2018-05-31T12:25:51.103Z,29.54
2018-05-31T12:28:21.079Z,29.74
2018-05-31T12:30:49.360Z,29.96
2018-05-31T12:33:17.615Z,30.15
2018-05-31T12:35:45.894Z,30.14
2018-05-31T12:38:14.192Z,30.45
2018-05-31T12:40:42.466Z,30.46
2018-05-31T12:43:10.739Z,30.68
2018-05-31T12:45:39.035Z,30.87
2018-05-31T12:48:07.281Z,30.79
2018-05-31T12:50:35.572Z,30.62
2018-05-31T12:53:05.240Z,30.26
2018-05-31T12:55:33.559Z,30.00
2018-05-31T12:58:01.815Z,30.13
2018-05-31T13:00:30.101Z,30.12
2018-05-31T13:02:58.373Z,30.41
2018-05-31T13:05:26.732Z,30.76
2018-05-31T13:07:54.987Z,30.94
2018-05-31T13:10:23.262Z,30.93
2018-05-31T13:12:51.825Z,30.87
2018-05-31T13:15:21.455Z,30.86
2018-05-31T13:17:49.788Z,30.85
2018-05-31T13:20:19.660Z,30.71
2018-05-31T13:22:47.959Z,30.41
2018-05-31T13:25:16.249Z,30.07
2018-05-31T13:27:44.510Z,30.04
2018-05-31T13:30:13.144Z,29.87
2018-05-31T13:32:42.083Z,29.78
2018-05-31T13:35:10.351Z,29.83
2018-05-31T13:37:38.647Z,29.93
2018-05-31T13:40:06.932Z,29.90
2018-05-31T13:42:35.219Z,30.22
2018-05-31T13:45:04.398Z,30.48
2018-05-31T13:47:34.274Z,30.50
2018-05-31T13:50:02.555Z,30.39
2018-05-31T13:52:30.848Z,30.55
2018-05-31T13:54:59.099Z,30.61
2018-05-31T13:57:27.458Z,30.75
2018-05-31T13:59:55.705Z,30.82
2018-05-31T14:02:23.992Z,30.53
2018-05-31T14:04:53.821Z,30.57
2018-05-31T14:07:22.099Z,30.84
2018-05-31T14:09:50.387Z,31.04
2018-05-31T14:12:18.641Z,31.38
2018-05-31T14:14:46.957Z,31.89
2018-05-31T14:17:15.239Z,32.26
2018-05-31T14:19:43.857Z,32.55
2018-05-31T14:22:12.146Z,32.25
2018-05-31T14:24:40.441Z,32.16
2018-05-31T14:27:08.699Z,32.07
2018-05-31T14:29:36.983Z,32.26
2018-05-31T14:32:05.365Z,32.34
2018-05-31T14:34:33.606Z,32.67
2018-05-31T14:37:01.901Z,33.19
2018-05-31T14:39:30.170Z,33.39
2018-05-31T14:41:58.478Z,33.52
2018-05-31T14:44:27.734Z,33.83
2018-05-31T14:46:58.512Z,34.16
2018-05-31T14:49:29.476Z,33.92
2018-05-31T14:51:57.785Z,33.71
2018-05-31T14:54:26.088Z,32.80
2018-05-31T14:56:55.483Z,32.04
2018-05-31T14:59:23.739Z,31.62
2018-05-31T15:01:52.130Z,31.66
2018-05-31T15:04:21.235Z,31.59
2018-05-31T15:06:49.518Z,31.65
2018-05-31T15:09:17.781Z,32.35
2018-05-31T15:11:46.090Z,32.92
2018-05-31T15:14:14.377Z,32.74
2018-05-31T15:16:42.716Z,32.85
2018-05-31T15:19:11.036Z,32.83
2018-05-31T15:21:42.025Z,33.07
2018-05-31T15:24:11.836Z,33.39
2018-05-31T15:26:41.083Z,32.89
2018-05-31T15:29:10.055Z,31.87
2018-05-31T15:31:39.363Z,31.77
2018-05-31T15:34:07.954Z,32.56
2018-05-31T15:36:36.230Z,33.36
2018-05-31T15:39:05.838Z,33.73
2018-05-31T15:41:34.095Z,33.52
2018-05-31T15:44:02.410Z,33.58
2018-05-31T15:46:30.709Z,33.53
2018-05-31T15:48:58.999Z,33.53
2018-05-31T15:51:28.042Z,33.63
2018-05-31T15:53:56.980Z,33.51
2018-05-31T15:56:25.254Z,33.69
2018-05-31T15:58:53.537Z,33.94
2018-05-31T16:01:21.866Z,34.35
2018-05-31T16:03:50.700Z,34.23
2018-05-31T16:06:21.736Z,34.40
2018-05-31T16:08:50.034Z,34.31
2018-05-31T16:11:19.533Z,34.18
2018-05-31T16:13:48.694Z,34.18
2018-05-31T16:16:16.940Z,33.86
2018-05-31T16:18:45.991Z,34.03
2018-05-31T16:21:14.248Z,34.34
2018-05-31T16:23:42.655Z,34.53
2018-05-31T16:26:10.990Z,34.73
2018-05-31T16:28:40.602Z,34.92
2018-05-31T16:31:08.943Z,34.81
2018-05-31T16:33:37.226Z,34.79
2018-05-31T16:36:05.585Z,34.60
2018-05-31T16:38:35.095Z,34.72
2018-05-31T16:41:04.741Z,34.75
2018-05-31T16:43:32.990Z,34.60
2018-05-31T16:46:01.274Z,34.41
2018-05-31T16:48:29.574Z,34.59
2018-05-31T16:50:57.898Z,35.47
2018-05-31T16:53:26.186Z,35.76
2018-05-31T16:55:54.491Z,36.16
2018-05-31T16:58:22.761Z,36.39
2018-05-31T17:00:51.054Z,36.81
2018-05-31T17:03:19.315Z,36.85
2018-05-31T17:05:47.571Z,36.54
2018-05-31T17:08:16.581Z,35.60
2018-05-31T17:10:44.859Z,34.73
2018-05-31T17:13:13.130Z,34.02
2018-05-31T17:15:41.483Z,33.39
2018-05-31T17:18:09.758Z,32.79
2018-05-31T17:20:38.015Z,31.99
2018-05-31T17:23:06.326Z,31.64
2018-05-31T17:25:34.606Z,31.90
2018-05-31T17:28:03.035Z,31.50
2018-05-31T17:30:31.502Z,31.39
2018-05-31T17:33:02.999Z,31.50
2018-05-31T17:35:31.271Z,31.13
2018-05-31T17:37:59.606Z,30.90
2018-05-31T17:40:30.074Z,30.80
2018-05-31T17:42:58.706Z,30.74
2018-05-31T17:45:28.177Z,30.75
2018-05-31T17:47:56.483Z,30.88
2018-05-31T17:50:24.794Z,30.78
2018-05-31T17:52:54.456Z,30.49
2018-05-31T17:55:22.839Z,30.44
2018-05-31T17:57:51.056Z,30.26
2018-05-31T18:00:19.333Z,30.23
2018-05-31T18:02:47.607Z,30.30
2018-05-31T18:05:15.921Z,30.45
2018-05-31T18:07:50.004Z,30.42
2018-05-31T18:10:18.321Z,30.58
2018-05-31T18:12:46.594Z,30.79
2018-05-31T18:15:14.992Z,30.63
2018-05-31T18:17:43.294Z,30.54
2018-05-31T18:20:11.632Z,30.27
2018-05-31T18:22:39.957Z,29.96
2018-05-31T18:25:08.307Z,29.90
2018-05-31T18:27:37.419Z,30.06
2018-05-31T18:30:05.710Z,30.08
2018-05-31T18:32:34.084Z,29.93
2018-05-31T18:35:03.383Z,29.76
2018-05-31T18:37:32.504Z,29.54
2018-05-31T18:40:01.838Z,29.50
2018-05-31T18:42:30.539Z,29.73
2018-05-31T18:45:00.003Z,29.60
2018-05-31T18:47:29.572Z,29.69
2018-05-31T18:49:57.951Z,29.81
2018-05-31T18:52:26.871Z,29.78
2018-05-31T18:54:56.196Z,29.59
2018-05-31T18:57:26.604Z,29.42
2018-05-31T18:59:55.254Z,29.27
2018-05-31T19:02:23.540Z,29.46
2018-05-31T19:04:51.861Z,29.57
2018-05-31T19:07:21.020Z,29.64
2018-05-31T19:09:49.311Z,29.69
2018-05-31T19:12:17.598Z,29.60
2018-05-31T19:14:49.982Z,29.28
2018-05-31T19:17:18.475Z,29.06
2018-05-31T19:19:52.771Z,28.88
2018-05-31T19:22:21.083Z,28.82
2018-05-31T19:24:55.203Z,28.91
2018-05-31T19:27:27.389Z,29.08
2018-05-31T19:30:02.655Z,29.14
2018-05-31T19:32:31.067Z,29.18
2018-05-31T19:34:59.487Z,29.11
2018-05-31T19:37:27.819Z,29.04
2018-05-31T19:39:56.142Z,28.77
2018-05-31T19:42:31.050Z,28.67
2018-05-31T19:44:59.381Z,28.66
2018-05-31T19:47:27.707Z,28.80
2018-05-31T19:49:56.004Z,28.87
2018-05-31T19:52:30.286Z,28.78
2018-05-31T19:54:58.522Z,28.60
2018-05-31T19:57:27.166Z,28.48
2018-05-31T20:00:00.975Z,28.38
2018-05-31T20:02:34.828Z,28.18
2018-05-31T20:05:05.335Z,28.11
2018-05-31T20:07:34.783Z,27.99
2018-05-31T20:10:03.023Z,27.86
2018-05-31T20:12:31.319Z,27.78
2018-05-31T20:14:59.565Z,27.78
2018-05-31T20:17:28.930Z,27.58
2018-05-31T20:19:57.368Z,27.54
2018-05-31T20:22:25.644Z,27.52
2018-05-31T20:24:53.975Z,27.49
2018-05-31T20:27:22.273Z,27.50
2018-05-31T20:29:50.521Z,27.45
2018-05-31T20:32:18.794Z,27.45
2018-05-31T20:34:47.295Z,27.44
2018-05-31T20:37:15.559Z,27.30
2018-05-31T20:39:44.170Z,27.18
2018-05-31T20:42:12.440Z,27.17
2018-05-31T20:44:40.733Z,27.28
2018-05-31T20:47:08.991Z,27.31
2018-05-31T20:49:37.303Z,27.27
2018-05-31T20:52:05.928Z,27.13
2018-05-31T20:54:34.241Z,27.00
2018-05-31T20:57:02.513Z,26.93
2018-05-31T20:59:30.827Z,27.03
2018-05-31T21:01:59.115Z,26.96
2018-05-31T21:04:27.442Z,26.88
2018-05-31T21:06:55.705Z,26.80
2018-05-31T21:09:23.966Z,26.75
2018-05-31T21:11:52.338Z,26.68
2018-05-31T21:14:21.166Z,26.74
2018-05-31T21:16:49.455Z,26.54
2018-05-31T21:19:17.716Z,26.53
2018-05-31T21:21:46.019Z,26.58
2018-05-31T21:24:14.311Z,26.55
2018-05-31T21:26:42.619Z,26.49
2018-05-31T21:29:12.122Z,26.43
2018-05-31T21:31:40.614Z,26.42
2018-05-31T21:34:12.690Z,26.38
2018-05-31T21:36:40.966Z,26.33
2018-05-31T21:39:09.770Z,26.23
2018-05-31T21:41:38.053Z,26.08
2018-05-31T21:44:06.343Z,26.10
2018-05-31T21:46:35.678Z,26.04
2018-05-31T21:49:06.786Z,25.82
2018-05-31T21:51:36.462Z,26.06
2018-05-31T21:54:04.956Z,26.04
2018-05-31T21:56:33.240Z,26.07
2018-05-31T21:59:02.927Z,26.03
2018-05-31T22:01:31.827Z,25.96
2018-05-31T22:04:00.104Z,25.94
2018-05-31T22:06:28.367Z,25.94
2018-05-31T22:08:56.657Z,25.95
2018-05-31T22:11:24.922Z,25.92
2018-05-31T22:13:53.218Z,25.93
2018-05-31T22:16:24.264Z,25.90
2018-05-31T22:18:52.558Z,26.03
2018-05-31T22:21:20.875Z,25.97
2018-05-31T22:23:49.175Z,25.82
2018-05-31T22:26:17.421Z,25.75
2018-05-31T22:28:45.721Z,25.46
2018-05-31T22:31:13.981Z,24.71
2018-05-31T22:33:42.674Z,24.26
2018-05-31T22:36:10.942Z,23.42
2018-05-31T22:38:39.238Z,22.86
2018-05-31T22:41:07.531Z,22.85
2018-05-31T22:43:35.787Z,22.82
2018-05-31T22:46:04.426Z,22.72
2018-05-31T22:48:32.690Z,22.79
2018-05-31T22:51:00.951Z,22.64
2018-05-31T22:53:30.587Z,22.48
2018-05-31T22:55:58.878Z,22.12
2018-05-31T22:58:27.162Z,21.65
2018-05-31T23:00:55.486Z,21.41
2018-05-31T23:03:23.749Z,21.18
2018-05-31T23:05:52.055Z,20.95
2018-05-31T23:08:20.330Z,20.77
2018-05-31T23:10:48.720Z,20.66
2018-05-31T23:13:16.979Z,20.60
2018-05-31T23:15:45.276Z,20.64
2018-05-31T23:18:13.541Z,20.65
2018-05-31T23:20:41.822Z,20.26
2018-05-31T23:23:10.092Z,20.25
2018-05-31T23:25:38.373Z,20.15
2018-05-31T23:28:06.636Z,20.20
2018-05-31T23:30:34.918Z,20.01
2018-05-31T23:33:04.591Z,20.09
2018-05-31T23:35:32.954Z,20.12
2018-05-31T23:38:01.220Z,19.92
2018-05-31T23:40:29.506Z,19.79
2018-05-31T23:42:57.781Z,19.59
2018-05-31T23:45:26.050Z,19.52
2018-05-31T23:47:54.350Z,19.50
2018-05-31T23:50:22.623Z,19.51
2018-05-31T23:52:50.933Z,19.56
2018-05-31T23:55:19.307Z,19.61
2018-05-31T23:57:47.686Z,19.49
